Hyannis, Massachusetts
Current Conditions -  °F | °C
As of 6:56 PM on Saturday 25 Oct 2014 (Local Time) from KHYA Reporting Station
Clear Clear  
Wind Chill: 57°   Ceiling: Unl
Heat Index: 57°   Visibility: 10mi
Dew Point: 49°   Wind: 9mph
Humidity: 74%   Direction: 240°WSW
Pressure: 29.61"   Gusts: NA
Location:  41.65°N, 70.28°W
Report Text: KHYA 252256Z AUTO 24008KT 10SM CLR 14/09 A2961 RMK AO2 SLP026 T01390094
Loading
Personal Weather Stations






























Interactive Weather Map
Tropical Storm Tracking
New forecast layout! Learn more

10-Day Weather Forecast

Advertisements
Track Severe Weather on mobile